Cocos, Brazil
Current Conditions -  °F | °C
As of 10:00 AM on Monday 24 Nov 2014 (Local Time) from SBMK Reporting Station
Light Rain Light Rain  
Wind Chill: 72°   Ceiling: 10000
Heat Index: 72°   Visibility: 6mi
Dew Point: 66°   Wind: 5mph
Humidity: 83%   Direction: 140°SE
Pressure: 30.09"   Gusts: NA
Location:  14.18°S, 44.53°W
Report Text: SBMK 241300Z 14004KT 110V190 9999 -RA FEW009 SCT030 BKN100 22/19 Q1019
Loading
Personal Weather Stations






























Interactive Weather Map New forecast layout! Learn more

10-Day Weather Forecast

Advertisements
Track Severe Weather on mobile